Arcadia, Texas
Current Conditions -  °F | °C
As of 11:53 AM on Thursday 23 Oct 2014 (Local Time) from KLVJ Reporting Station
Clear Clear  
Wind Chill: 74°   Ceiling: Unl
Heat Index: 74°   Visibility: 10mi
Dew Point: 58°   Wind: 3mph
Humidity: 57%   Direction: NA
Pressure: 30.14"   Gusts: NA
Location:  29.3723°N, 95.1328°W
Report Text: KLVJ 231653Z AUTO VRB03KT 10SM CLR 23/14 A3014 RMK AO2 SLP206 T02330144
Loading
Personal Weather Stations






























Interactive Weather Map New forecast layout! Learn more

10-Day Weather Forecast

Advertisements
Track Severe Weather on mobile